sensor_id;sensor_type;location;lat;lon;timestamp;pressure;altitude;pressure_sealevel;temperature;humidity
79413;BME280;68863;49.528;11.010;2024-02-26T00:00:20;96631.16;;;7.41;52.83
79413;BME280;68863;49.528;11.010;2024-02-26T00:01:20;96633.41;;;7.24;52.99
79413;BME280;68863;49.528;11.010;2024-02-26T00:02:21;96635.22;;;7.03;53.78
79413;BME280;68863;49.528;11.010;2024-02-26T00:03:21;96639.34;;;7.26;53.12
79413;BME280;68863;49.528;11.010;2024-02-26T00:04:22;96634.38;;;7.23;53.06
79413;BME280;68863;49.528;11.010;2024-02-26T00:05:22;96631.53;;;7.26;53.01
79413;BME280;68863;49.528;11.010;2024-02-26T00:06:22;96635.34;;;7.22;53.39
79413;BME280;68863;49.528;11.010;2024-02-26T00:07:23;96623.06;;;7.34;52.95
79413;BME280;68863;49.528;11.010;2024-02-26T00:08:23;96629.66;;;7.38;52.93
79413;BME280;68863;49.528;11.010;2024-02-26T00:09:23;96624.19;;;7.41;52.82
79413;BME280;68863;49.528;11.010;2024-02-26T00:10:24;96628.84;;;7.38;52.77
79413;BME280;68863;49.528;11.010;2024-02-26T00:11:24;96623.81;;;7.04;53.75
79413;BME280;68863;49.528;11.010;2024-02-26T00:12:24;96628.59;;;6.99;53.63
79413;BME280;68863;49.528;11.010;2024-02-26T00:13:25;96619.88;;;6.88;54.08
79413;BME280;68863;49.528;11.010;2024-02-26T00:14:25;96633.88;;;6.87;54.00
79413;BME280;68863;49.528;11.010;2024-02-26T00:15:25;96629.88;;;6.83;54.23
79413;BME280;68863;49.528;11.010;2024-02-26T00:16:27;96629.66;;;6.96;54.03
79413;BME280;68863;49.528;11.010;2024-02-26T00:17:28;96623.69;;;6.84;54.21
79413;BME280;68863;49.528;11.010;2024-02-26T00:18:28;96626.81;;;6.99;53.66
79413;BME280;68863;49.528;11.010;2024-02-26T00:19:29;96614.78;;;6.87;53.87
79413;BME280;68863;49.528;11.010;2024-02-26T00:20:29;96620.69;;;6.89;53.82
79413;BME280;68863;49.528;11.010;2024-02-26T00:21:29;96614.41;;;7.12;53.46
79413;BME280;68863;49.528;11.010;2024-02-26T00:22:31;96619.25;;;6.96;53.62
79413;BME280;68863;49.528;11.010;2024-02-26T00:23:31;96611.28;;;6.98;53.54
79413;BME280;68863;49.528;11.010;2024-02-26T00:24:32;96617.16;;;7.11;53.51
79413;BME280;68863;49.528;11.010;2024-02-26T00:25:32;96610.78;;;7.04;53.34
79413;BME280;68863;49.528;11.010;2024-02-26T00:26:32;96612.44;;;6.84;53.67
79413;BME280;68863;49.528;11.010;2024-02-26T00:27:33;96614.03;;;6.96;53.24
79413;BME280;68863;49.528;11.010;2024-02-26T00:28:33;96621.78;;;7.07;53.40
79413;BME280;68863;49.528;11.010;2024-02-26T00:29:34;96612.22;;;7.18;52.89
79413;BME280;68863;49.528;11.010;2024-02-26T00:30:34;96609.94;;;7.03;53.32
79413;BME280;68863;49.528;11.010;2024-02-26T00:31:36;96607.59;;;7.00;53.52
79413;BME280;68863;49.528;11.010;2024-02-26T00:32:37;96605.00;;;7.00;53.62
79413;BME280;68863;49.528;11.010;2024-02-26T00:33:37;96615.28;;;7.02;53.52
79413;BME280;68863;49.528;11.010;2024-02-26T00:34:38;96616.19;;;6.91;53.77
79413;BME280;68863;49.528;11.010;2024-02-26T00:35:38;96609.53;;;6.98;53.50
79413;BME280;68863;49.528;11.010;2024-02-26T00:36:39;96612.81;;;6.79;54.21
79413;BME280;68863;49.528;11.010;2024-02-26T00:37:39;96608.53;;;6.78;54.14
79413;BME280;68863;49.528;11.010;2024-02-26T00:38:40;96606.13;;;7.07;53.75
79413;BME280;68863;49.528;11.010;2024-02-26T00:39:41;96605.09;;;6.78;54.17
79413;BME280;68863;49.528;11.010;2024-02-26T00:40:41;96605.56;;;7.04;53.83
79413;BME280;68863;49.528;11.010;2024-02-26T00:41:42;96610.50;;;6.86;53.67
79413;BME280;68863;49.528;11.010;2024-02-26T00:42:42;96603.19;;;7.01;53.74
79413;BME280;68863;49.528;11.010;2024-02-26T00:43:46;96599.38;;;6.84;54.00
79413;BME280;68863;49.528;11.010;2024-02-26T00:44:47;96598.22;;;6.77;54.08
79413;BME280;68863;49.528;11.010;2024-02-26T00:45:47;96597.31;;;6.67;54.27
79413;BME280;68863;49.528;11.010;2024-02-26T00:46:47;96601.28;;;6.61;54.57
79413;BME280;68863;49.528;11.010;2024-02-26T00:47:48;96595.53;;;6.46;55.07
79413;BME280;68863;49.528;11.010;2024-02-26T00:48:49;96593.47;;;6.29;55.39
79413;BME280;68863;49.528;11.010;2024-02-26T00:49:49;96595.59;;;6.24;55.79
79413;BME280;68863;49.528;11.010;2024-02-26T00:50:49;96586.19;;;6.44;55.38
79413;BME280;68863;49.528;11.010;2024-02-26T00:51:50;96596.44;;;6.56;54.93
79413;BME280;68863;49.528;11.010;2024-02-26T00:52:50;96594.38;;;6.71;54.49
79413;BME280;68863;49.528;11.010;2024-02-26T00:53:50;96592.09;;;6.67;54.35
79413;BME280;68863;49.528;11.010;2024-02-26T00:54:51;96593.31;;;6.62;54.69
79413;BME280;68863;49.528;11.010;2024-02-26T00:55:51;96603.97;;;6.38;54.90
79413;BME280;68863;49.528;11.010;2024-02-26T00:56:52;96592.78;;;6.80;54.35
79413;BME280;68863;49.528;11.010;2024-02-26T00:57:52;96595.19;;;6.93;53.83
79413;BME280;68863;49.528;11.010;2024-02-26T00:58:52;96595.25;;;6.81;53.89
79413;BME280;68863;49.528;11.010;2024-02-26T00:59:53;96596.09;;;6.50;54.82
79413;BME280;68863;49.528;11.010;2024-02-26T01:00:55;96602.66;;;6.44;54.87
79413;BME280;68863;49.528;11.010;2024-02-26T01:01:55;96608.09;;;6.41;54.65
79413;BME280;68863;49.528;11.010;2024-02-26T01:02:56;96598.31;;;6.54;54.84
79413;BME280;68863;49.528;11.010;2024-02-26T01:03:56;96601.97;;;6.63;54.29
79413;BME280;68863;49.528;11.010;2024-02-26T01:04:57;96600.31;;;6.62;54.36
79413;BME280;68863;49.528;11.010;2024-02-26T01:05:57;96609.56;;;6.55;54.99
79413;BME280;68863;49.528;11.010;2024-02-26T01:06:57;96596.91;;;6.50;54.99
79413;BME280;68863;49.528;11.010;2024-02-26T01:07:58;96607.59;;;6.47;55.29
79413;BME280;68863;49.528;11.010;2024-02-26T01:08:58;96601.50;;;6.37;55.29
79413;BME280;68863;49.528;11.010;2024-02-26T01:09:59;96603.00;;;6.72;54.65
79413;BME280;68863;49.528;11.010;2024-02-26T01:10:59;96604.94;;;6.58;54.82
79413;BME280;68863;49.528;11.010;2024-02-26T01:12:00;96608.47;;;6.36;55.41
79413;BME280;68863;49.528;11.010;2024-02-26T01:13:01;96605.66;;;6.28;56.09
79413;BME280;68863;49.528;11.010;2024-02-26T01:14:01;96608.19;;;6.07;56.31
79413;BME280;68863;49.528;11.010;2024-02-26T01:15:02;96607.00;;;6.11;56.47
79413;BME280;68863;49.528;11.010;2024-02-26T01:16:03;96606.19;;;6.43;55.57
79413;BME280;68863;49.528;11.010;2024-02-26T01:17:04;96606.00;;;6.24;55.53
79413;BME280;68863;49.528;11.010;2024-02-26T01:18:04;96605.31;;;6.22;55.53
79413;BME280;68863;49.528;11.010;2024-02-26T01:19:04;96611.56;;;6.30;55.25
79413;BME280;68863;49.528;11.010;2024-02-26T01:20:06;96607.59;;;6.04;56.05
79413;BME280;68863;49.528;11.010;2024-02-26T01:21:06;96605.38;;;5.99;56.33
79413;BME280;68863;49.528;11.010;2024-02-26T01:22:09;96602.16;;;6.07;56.38
79413;BME280;68863;49.528;11.010;2024-02-26T01:23:09;96596.28;;;6.37;55.51
79413;BME280;68863;49.528;11.010;2024-02-26T01:24:10;96603.34;;;6.46;54.95
79413;BME280;68863;49.528;11.010;2024-02-26T01:25:11;96603.31;;;6.57;54.68
79413;BME280;68863;49.528;11.010;2024-02-26T01:26:11;96593.88;;;6.45;54.95
79413;BME280;68863;49.528;11.010;2024-02-26T01:27:12;96598.72;;;6.50;54.63
79413;BME280;68863;49.528;11.010;2024-02-26T01:28:14;96596.84;;;6.73;54.30
79413;BME280;68863;49.528;11.010;2024-02-26T01:29:14;96606.81;;;6.68;54.13
79413;BME280;68863;49.528;11.010;2024-02-26T01:30:15;96605.88;;;6.69;54.27
79413;BME280;68863;49.528;11.010;2024-02-26T01:31:17;96604.47;;;6.85;54.18
79413;BME280;68863;49.528;11.010;2024-02-26T01:32:17;96600.84;;;6.77;54.31
79413;BME280;68863;49.528;11.010;2024-02-26T01:33:18;96602.72;;;6.75;54.38
79413;BME280;68863;49.528;11.010;2024-02-26T01:34:18;96595.56;;;6.88;54.19
79413;BME280;68863;49.528;11.010;2024-02-26T01:35:19;96595.75;;;6.75;54.40
79413;BME280;68863;49.528;11.010;2024-02-26T01:36:20;96599.91;;;6.46;55.30
79413;BME280;68863;49.528;11.010;2024-02-26T01:37:21;96596.44;;;6.56;55.07
79413;BME280;68863;49.528;11.010;2024-02-26T01:38:21;96595.09;;;6.30;55.72
79413;BME280;68863;49.528;11.010;2024-02-26T01:39:21;96592.81;;;6.48;55.74
79413;BME280;68863;49.528;11.010;2024-02-26T01:40:22;96591.22;;;6.56;55.34
79413;BME280;68863;49.528;11.010;2024-02-26T01:41:23;96589.56;;;6.55;55.06
79413;BME280;68863;49.528;11.010;2024-02-26T01:42:23;96588.47;;;6.58;55.24
79413;BME280;68863;49.528;11.010;2024-02-26T01:43:23;96584.81;;;6.60;55.25
79413;BME280;68863;49.528;11.010;2024-02-26T01:44:26;96594.97;;;6.31;56.25
79413;BME280;68863;49.528;11.010;2024-02-26T01:45:26;96588.47;;;6.58;55.53
79413;BME280;68863;49.528;11.010;2024-02-26T01:46:29;96580.28;;;6.62;55.41
79413;BME280;68863;49.528;11.010;2024-02-26T01:47:30;96588.09;;;6.62;55.50
79413;BME280;68863;49.528;11.010;2024-02-26T01:48:31;96586.25;;;6.53;55.62
79413;BME280;68863;49.528;11.010;2024-02-26T01:49:31;96586.31;;;6.63;55.53
79413;BME280;68863;49.528;11.010;2024-02-26T01:50:32;96587.09;;;6.75;55.12
79413;BME280;68863;49.528;11.010;2024-02-26T01:51:35;96587.69;;;6.99;55.29
79413;BME280;68863;49.528;11.010;2024-02-26T01:52:35;96582.00;;;7.15;54.79
79413;BME280;68863;49.528;11.010;2024-02-26T01:53:36;96574.81;;;7.07;55.41
79413;BME280;68863;49.528;11.010;2024-02-26T01:54:37;96582.31;;;7.22;55.13
79413;BME280;68863;49.528;11.010;2024-02-26T01:55:38;96579.31;;;7.05;55.57
79413;BME280;68863;49.528;11.010;2024-02-26T01:56:40;96581.00;;;7.06;55.55
79413;BME280;68863;49.528;11.010;2024-02-26T01:57:44;96583.25;;;7.21;55.50
79413;BME280;68863;49.528;11.010;2024-02-26T01:58:45;96578.75;;;7.23;55.67
79413;BME280;68863;49.528;11.010;2024-02-26T01:59:46;96577.00;;;7.02;55.99
79413;BME280;68863;49.528;11.010;2024-02-26T02:00:46;96588.06;;;7.16;56.00
79413;BME280;68863;49.528;11.010;2024-02-26T02:01:49;96583.66;;;7.16;56.05
79413;BME280;68863;49.528;11.010;2024-02-26T02:02:54;96587.28;;;7.25;55.66
79413;BME280;68863;49.528;11.010;2024-02-26T02:03:57;96591.09;;;7.21;55.85
79413;BME280;68863;49.528;11.010;2024-02-26T02:04:58;96584.03;;;7.11;56.28
79413;BME280;68863;49.528;11.010;2024-02-26T02:05:59;96588.63;;;7.19;56.24
79413;BME280;68863;49.528;11.010;2024-02-26T02:07:00;96593.97;;;6.97;56.62
79413;BME280;68863;49.528;11.010;2024-02-26T02:08:00;96597.59;;;7.05;56.42
79413;BME280;68863;49.528;11.010;2024-02-26T02:09:01;96591.28;;;6.66;56.17
79413;BME280;68863;49.528;11.010;2024-02-26T02:10:07;96589.81;;;6.52;56.80
79413;BME280;68863;49.528;11.010;2024-02-26T02:11:07;96599.06;;;6.77;56.13
79413;BME280;68863;49.528;11.010;2024-02-26T02:12:11;96596.88;;;6.82;55.56
79413;BME280;68863;49.528;11.010;2024-02-26T02:13:11;96595.19;;;6.72;56.08
79413;BME280;68863;49.528;11.010;2024-02-26T02:14:12;96594.56;;;6.47;56.51
79413;BME280;68863;49.528;11.010;2024-02-26T02:15:12;96589.78;;;6.63;56.44
79413;BME280;68863;49.528;11.010;2024-02-26T02:16:13;96585.53;;;6.83;55.79
79413;BME280;68863;49.528;11.010;2024-02-26T02:17:13;96589.41;;;6.89;55.55
79413;BME280;68863;49.528;11.010;2024-02-26T02:18:14;96595.03;;;6.94;55.61
79413;BME280;68863;49.528;11.010;2024-02-26T02:19:14;96594.09;;;7.16;55.22
79413;BME280;68863;49.528;11.010;2024-02-26T02:20:16;96592.44;;;6.94;56.01
79413;BME280;68863;49.528;11.010;2024-02-26T02:21:18;96598.50;;;7.16;55.57
79413;BME280;68863;49.528;11.010;2024-02-26T02:22:18;96596.84;;;7.15;55.52
79413;BME280;68863;49.528;11.010;2024-02-26T02:23:18;96598.88;;;6.90;56.00
79413;BME280;68863;49.528;11.010;2024-02-26T02:24:19;96596.41;;;6.68;56.81
79413;BME280;68863;49.528;11.010;2024-02-26T02:25:19;96599.56;;;6.39;57.33
79413;BME280;68863;49.528;11.010;2024-02-26T02:26:20;96596.34;;;6.47;57.21
79413;BME280;68863;49.528;11.010;2024-02-26T02:27:21;96596.53;;;6.55;57.22
79413;BME280;68863;49.528;11.010;2024-02-26T02:28:21;96595.91;;;6.62;56.80
79413;BME280;68863;49.528;11.010;2024-02-26T02:29:22;96588.84;;;6.53;57.04
79413;BME280;68863;49.528;11.010;2024-02-26T02:30:28;96588.81;;;6.65;56.90
79413;BME280;68863;49.528;11.010;2024-02-26T02:31:29;96590.84;;;6.82;56.55
79413;BME280;68863;49.528;11.010;2024-02-26T02:32:29;96596.88;;;6.82;56.38
79413;BME280;68863;49.528;11.010;2024-02-26T02:33:30;96597.16;;;7.00;55.72
79413;BME280;68863;49.528;11.010;2024-02-26T02:34:31;96594.97;;;7.05;55.80
79413;BME280;68863;49.528;11.010;2024-02-26T02:35:32;96601.03;;;6.85;55.87
79413;BME280;68863;49.528;11.010;2024-02-26T02:36:33;96603.00;;;6.72;56.31
79413;BME280;68863;49.528;11.010;2024-02-26T02:37:34;96605.78;;;6.59;56.55
79413;BME280;68863;49.528;11.010;2024-02-26T02:38:34;96605.91;;;6.57;56.65
79413;BME280;68863;49.528;11.010;2024-02-26T02:39:34;96610.16;;;6.58;56.76
79413;BME280;68863;49.528;11.010;2024-02-26T02:40:35;96612.97;;;6.67;56.77
79413;BME280;68863;49.528;11.010;2024-02-26T02:41:35;96597.31;;;6.67;56.99
79413;BME280;68863;49.528;11.010;2024-02-26T02:42:36;96601.22;;;6.72;56.50
79413;BME280;68863;49.528;11.010;2024-02-26T02:43:36;96607.50;;;6.70;56.80
79413;BME280;68863;49.528;11.010;2024-02-26T02:44:36;96613.31;;;6.73;56.80
79413;BME280;68863;49.528;11.010;2024-02-26T02:45:37;96605.41;;;7.05;56.12
79413;BME280;68863;49.528;11.010;2024-02-26T02:46:38;96595.81;;;6.85;56.57
79413;BME280;68863;49.528;11.010;2024-02-26T02:47:38;96596.84;;;7.15;55.60
79413;BME280;68863;49.528;11.010;2024-02-26T02:48:39;96601.13;;;6.95;55.99
79413;BME280;68863;49.528;11.010;2024-02-26T02:49:39;96589.94;;;7.13;56.06
79413;BME280;68863;49.528;11.010;2024-02-26T02:50:39;96590.63;;;7.36;55.44
79413;BME280;68863;49.528;11.010;2024-02-26T02:51:40;96584.63;;;7.46;55.12
79413;BME280;68863;49.528;11.010;2024-02-26T02:52:40;96584.13;;;7.00;56.42
79413;BME280;68863;49.528;11.010;2024-02-26T02:53:40;96585.44;;;7.16;56.15
79413;BME280;68863;49.528;11.010;2024-02-26T02:54:41;96586.03;;;6.98;56.79
79413;BME280;68863;49.528;11.010;2024-02-26T02:55:42;96585.91;;;7.00;56.56
79413;BME280;68863;49.528;11.010;2024-02-26T02:56:42;96585.19;;;7.19;56.21
79413;BME280;68863;49.528;11.010;2024-02-26T02:57:43;96586.00;;;7.19;56.22
79413;BME280;68863;49.528;11.010;2024-02-26T02:58:44;96584.28;;;7.08;56.33
79413;BME280;68863;49.528;11.010;2024-02-26T02:59:46;96589.00;;;6.94;56.96
79413;BME280;68863;49.528;11.010;2024-02-26T03:00:47;96581.75;;;6.76;57.14
79413;BME280;68863;49.528;11.010;2024-02-26T03:01:47;96584.28;;;6.67;57.67
79413;BME280;68863;49.528;11.010;2024-02-26T03:02:48;96579.66;;;6.70;57.31
79413;BME280;68863;49.528;11.010;2024-02-26T03:03:48;96583.22;;;6.90;56.92
79413;BME280;68863;49.528;11.010;2024-02-26T03:04:49;96589.91;;;7.04;56.80
79413;BME280;68863;49.528;11.010;2024-02-26T03:05:49;96587.09;;;7.17;56.39
79413;BME280;68863;49.528;11.010;2024-02-26T03:06:50;96584.03;;;7.11;56.24
79413;BME280;68863;49.528;11.010;2024-02-26T03:07:50;96585.31;;;7.17;56.04
79413;BME280;68863;49.528;11.010;2024-02-26T03:08:50;96596.38;;;7.09;56.21
79413;BME280;68863;49.528;11.010;2024-02-26T03:09:51;96591.91;;;6.91;56.91
79413;BME280;68863;49.528;11.010;2024-02-26T03:10:51;96588.13;;;6.83;57.08
79413;BME280;68863;49.528;11.010;2024-02-26T03:11:52;96588.28;;;6.71;57.64
79413;BME280;68863;49.528;11.010;2024-02-26T03:12:53;96591.66;;;6.82;57.50
79413;BME280;68863;49.528;11.010;2024-02-26T03:13:54;96590.53;;;6.96;56.65
79413;BME280;68863;49.528;11.010;2024-02-26T03:14:54;96590.22;;;6.90;57.16
79413;BME280;68863;49.528;11.010;2024-02-26T03:15:54;96592.72;;;6.91;57.22
79413;BME280;68863;49.528;11.010;2024-02-26T03:16:55;96588.38;;;6.80;57.50
79413;BME280;68863;49.528;11.010;2024-02-26T03:17:55;96582.72;;;6.96;57.09
79413;BME280;68863;49.528;11.010;2024-02-26T03:18:56;96580.72;;;7.09;56.81
79413;BME280;68863;49.528;11.010;2024-02-26T03:19:56;96582.00;;;7.15;56.62
79413;BME280;68863;49.528;11.010;2024-02-26T03:20:56;96583.00;;;7.24;56.60
79413;BME280;68863;49.528;11.010;2024-02-26T03:21:57;96582.50;;;7.30;56.31
79413;BME280;68863;49.528;11.010;2024-02-26T03:22:57;96582.66;;;7.07;56.77
79413;BME280;68863;49.528;11.010;2024-02-26T03:23:57;96577.69;;;7.04;56.96
79413;BME280;68863;49.528;11.010;2024-02-26T03:24:58;96586.97;;;6.97;57.31
79413;BME280;68863;49.528;11.010;2024-02-26T03:25:58;96578.47;;;6.95;57.43
79413;BME280;68863;49.528;11.010;2024-02-26T03:26:59;96579.91;;;6.88;57.63
79413;BME280;68863;49.528;11.010;2024-02-26T03:27:59;96582.78;;;6.85;57.93
79413;BME280;68863;49.528;11.010;2024-02-26T03:29:00;96582.19;;;6.81;57.81
79413;BME280;68863;49.528;11.010;2024-02-26T03:30:02;96580.28;;;7.04;57.36
79413;BME280;68863;49.528;11.010;2024-02-26T03:31:03;96575.91;;;6.84;57.76
79413;BME280;68863;49.528;11.010;2024-02-26T03:32:07;96580.09;;;6.96;57.64
79413;BME280;68863;49.528;11.010;2024-02-26T03:33:07;96583.34;;;7.09;57.27
79413;BME280;68863;49.528;11.010;2024-02-26T03:34:07;96582.25;;;7.12;56.93
79413;BME280;68863;49.528;11.010;2024-02-26T03:35:08;96577.13;;;7.22;56.87
79413;BME280;68863;49.528;11.010;2024-02-26T03:36:09;96577.66;;;7.25;56.38
79413;BME280;68863;49.528;11.010;2024-02-26T03:37:09;96588.72;;;6.87;57.30
79413;BME280;68863;49.528;11.010;2024-02-26T03:38:10;96586.03;;;6.98;57.27
79413;BME280;68863;49.528;11.010;2024-02-26T03:39:11;96590.34;;;6.88;57.22
79413;BME280;68863;49.528;11.010;2024-02-26T03:40:12;96587.03;;;6.86;57.43
79413;BME280;68863;49.528;11.010;2024-02-26T03:41:14;96599.00;;;6.88;57.51
79413;BME280;68863;49.528;11.010;2024-02-26T03:42:15;96592.00;;;6.89;57.50
79413;BME280;68863;49.528;11.010;2024-02-26T03:43:17;96596.00;;;6.72;57.90
79413;BME280;68863;49.528;11.010;2024-02-26T03:44:17;96603.66;;;6.85;57.70
79413;BME280;68863;49.528;11.010;2024-02-26T03:45:17;96598.00;;;6.80;57.95
79413;BME280;68863;49.528;11.010;2024-02-26T03:46:18;96596.34;;;6.79;58.16
79413;BME280;68863;49.528;11.010;2024-02-26T03:47:18;96590.78;;;6.93;58.04
79413;BME280;68863;49.528;11.010;2024-02-26T03:48:19;96586.13;;;7.18;56.87
79413;BME280;68863;49.528;11.010;2024-02-26T03:49:19;96584.44;;;7.07;57.10
79413;BME280;68863;49.528;11.010;2024-02-26T03:50:19;96586.50;;;7.13;56.81
79413;BME280;68863;49.528;11.010;2024-02-26T03:51:20;96584.88;;;7.12;57.19
79413;BME280;68863;49.528;11.010;2024-02-26T03:52:20;96591.50;;;6.95;57.35
79413;BME280;68863;49.528;11.010;2024-02-26T03:53:20;96589.59;;;6.97;57.42
79413;BME280;68863;49.528;11.010;2024-02-26T03:54:21;96583.09;;;6.92;57.44
79413;BME280;68863;49.528;11.010;2024-02-26T03:55:22;96589.53;;;6.87;57.79
79413;BME280;68863;49.528;11.010;2024-02-26T03:56:25;96585.75;;;7.01;57.43
79413;BME280;68863;49.528;11.010;2024-02-26T03:57:26;96586.28;;;6.95;57.36
79413;BME280;68863;49.528;11.010;2024-02-26T03:58:26;96592.31;;;6.96;57.71
79413;BME280;68863;49.528;11.010;2024-02-26T03:59:26;96585.63;;;6.82;57.95
79413;BME280;68863;49.528;11.010;2024-02-26T04:00:27;96583.69;;;6.95;57.61
79413;BME280;68863;49.528;11.010;2024-02-26T04:01:30;96585.78;;;6.59;58.08
79413;BME280;68863;49.528;11.010;2024-02-26T04:02:30;96579.88;;;6.46;58.75
79413;BME280;68863;49.528;11.010;2024-02-26T04:03:30;96590.47;;;6.33;59.19
79413;BME280;68863;49.528;11.010;2024-02-26T04:04:34;96579.16;;;6.55;58.58
79413;BME280;68863;49.528;11.010;2024-02-26T04:05:34;96586.69;;;6.58;58.33
79413;BME280;68863;49.528;11.010;2024-02-26T04:06:34;96580.47;;;6.50;58.99
79413;BME280;68863;49.528;11.010;2024-02-26T04:07:35;96581.66;;;6.46;58.56
79413;BME280;68863;49.528;11.010;2024-02-26T04:08:36;96581.88;;;6.54;58.58
79413;BME280;68863;49.528;11.010;2024-02-26T04:09:36;96576.59;;;6.44;58.52
79413;BME280;68863;49.528;11.010;2024-02-26T04:10:37;96588.84;;;6.53;58.56
79413;BME280;68863;49.528;11.010;2024-02-26T04:11:40;96577.78;;;6.40;58.76
79413;BME280;68863;49.528;11.010;2024-02-26T04:12:41;96581.09;;;6.42;58.50
79413;BME280;68863;49.528;11.010;2024-02-26T04:13:42;96580.31;;;6.51;58.63
79413;BME280;68863;49.528;11.010;2024-02-26T04:14:45;96580.94;;;6.76;57.50
79413;BME280;68863;49.528;11.010;2024-02-26T04:15:46;96589.81;;;6.94;57.26
79413;BME280;68863;49.528;11.010;2024-02-26T04:16:47;96588.00;;;6.85;57.05
79413;BME280;68863;49.528;11.010;2024-02-26T04:17:51;96587.59;;;6.90;57.21
79413;BME280;68863;49.528;11.010;2024-02-26T04:18:51;96588.06;;;6.95;57.35
79413;BME280;68863;49.528;11.010;2024-02-26T04:19:53;96586.13;;;7.18;56.80
79413;BME280;68863;49.528;11.010;2024-02-26T04:20:54;96583.66;;;7.16;56.78
79413;BME280;68863;49.528;11.010;2024-02-26T04:21:54;96592.69;;;7.12;56.57
79413;BME280;68863;49.528;11.010;2024-02-26T04:22:55;96592.25;;;7.07;57.14
79413;BME280;68863;49.528;11.010;2024-02-26T04:23:55;96595.63;;;6.98;57.41
79413;BME280;68863;49.528;11.010;2024-02-26T04:24:56;96588.94;;;7.05;57.53
79413;BME280;68863;49.528;11.010;2024-02-26T04:25:56;96595.75;;;6.96;57.47
79413;BME280;68863;49.528;11.010;2024-02-26T04:26:56;96589.06;;;6.82;57.45
79413;BME280;68863;49.528;11.010;2024-02-26T04:27:57;96593.94;;;6.87;57.29
79413;BME280;68863;49.528;11.010;2024-02-26T04:28:57;96592.00;;;6.89;57.50
79413;BME280;68863;49.528;11.010;2024-02-26T04:29:57;96592.25;;;6.86;57.36
79413;BME280;68863;49.528;11.010;2024-02-26T04:30:58;96590.34;;;6.88;57.69
79413;BME280;68863;49.528;11.010;2024-02-26T04:31:58;96594.22;;;6.94;57.54
79413;BME280;68863;49.528;11.010;2024-02-26T04:32:59;96593.59;;;6.80;58.06
79413;BME280;68863;49.528;11.010;2024-02-26T04:33:59;96595.91;;;6.95;57.88
79413;BME280;68863;49.528;11.010;2024-02-26T04:35:01;96603.34;;;6.99;57.80
79413;BME280;68863;49.528;11.010;2024-02-26T04:36:01;96599.25;;;6.65;58.43
79413;BME280;68863;49.528;11.010;2024-02-26T04:37:01;96596.84;;;6.73;58.89
79413;BME280;68863;49.528;11.010;2024-02-26T04:38:02;96591.56;;;6.84;58.61
79413;BME280;68863;49.528;11.010;2024-02-26T04:39:02;96589.34;;;7.00;58.04
79413;BME280;68863;49.528;11.010;2024-02-26T04:40:03;96598.38;;;6.96;57.91
79413;BME280;68863;49.528;11.010;2024-02-26T04:41:04;96593.53;;;6.92;58.02
79413;BME280;68863;49.528;11.010;2024-02-26T04:42:05;96592.97;;;6.88;58.07
79413;BME280;68863;49.528;11.010;2024-02-26T04:43:05;96594.03;;;6.85;58.17
79413;BME280;68863;49.528;11.010;2024-02-26T04:44:05;96597.22;;;6.89;58.12
79413;BME280;68863;49.528;11.010;2024-02-26T04:45:06;96597.66;;;6.73;58.75
79413;BME280;68863;49.528;11.010;2024-02-26T04:46:08;96598.88;;;6.90;58.27
79413;BME280;68863;49.528;11.010;2024-02-26T04:47:09;96598.75;;;6.92;58.37
79413;BME280;68863;49.528;11.010;2024-02-26T04:48:09;96595.16;;;7.13;58.11
79413;BME280;68863;49.528;11.010;2024-02-26T04:49:10;96604.22;;;6.88;58.47
79413;BME280;68863;49.528;11.010;2024-02-26T04:50:10;96595.28;;;6.70;58.99
79413;BME280;68863;49.528;11.010;2024-02-26T04:51:10;96599.50;;;6.61;59.12
79413;BME280;68863;49.528;11.010;2024-02-26T04:52:11;96601.22;;;6.72;59.21
79413;BME280;68863;49.528;11.010;2024-02-26T04:53:11;96602.50;;;6.78;59.07
79413;BME280;68863;49.528;11.010;2024-02-26T04:54:12;96598.19;;;6.67;59.15
79413;BME280;68863;49.528;11.010;2024-02-26T04:55:12;96598.19;;;6.67;59.53
79413;BME280;68863;49.528;11.010;2024-02-26T04:56:12;96604.59;;;6.84;59.08
79413;BME280;68863;49.528;11.010;2024-02-26T04:57:13;96607.75;;;6.67;59.25
79413;BME280;68863;49.528;11.010;2024-02-26T04:58:14;96610.13;;;6.70;59.47
79413;BME280;68863;49.528;11.010;2024-02-26T04:59:14;96610.84;;;6.72;59.14
79413;BME280;68863;49.528;11.010;2024-02-26T05:00:14;96617.59;;;6.63;59.66
79413;BME280;68863;49.528;11.010;2024-02-26T05:01:15;96612.03;;;6.68;59.55
79413;BME280;68863;49.528;11.010;2024-02-26T05:02:17;96608.34;;;6.70;59.68
79413;BME280;68863;49.528;11.010;2024-02-26T05:03:17;96613.06;;;6.76;59.42
79413;BME280;68863;49.528;11.010;2024-02-26T05:04:18;96611.41;;;6.75;59.19
79413;BME280;68863;49.528;11.010;2024-02-26T05:05:19;96604.34;;;6.87;58.52
79413;BME280;68863;49.528;11.010;2024-02-26T05:06:19;96609.38;;;7.00;58.70
79413;BME280;68863;49.528;11.010;2024-02-26T05:07:19;96605.63;;;6.93;58.85
79413;BME280;68863;49.528;11.010;2024-02-26T05:08:20;96605.28;;;6.86;59.26
79413;BME280;68863;49.528;11.010;2024-02-26T05:09:20;96610.50;;;6.86;59.38
79413;BME280;68863;49.528;11.010;2024-02-26T05:10:21;96603.91;;;7.03;58.88
79413;BME280;68863;49.528;11.010;2024-02-26T05:11:21;96610.69;;;6.94;58.75
79413;BME280;68863;49.528;11.010;2024-02-26T05:12:21;96607.72;;;6.99;58.39
79413;BME280;68863;49.528;11.010;2024-02-26T05:13:22;96609.56;;;7.08;58.55
79413;BME280;68863;49.528;11.010;2024-02-26T05:14:22;96606.56;;;7.12;58.43
79413;BME280;68863;49.528;11.010;2024-02-26T05:15:22;96616.63;;;7.17;58.42
79413;BME280;68863;49.528;11.010;2024-02-26T05:16:23;96600.84;;;7.19;58.17
79413;BME280;68863;49.528;11.010;2024-02-26T05:17:24;96607.47;;;7.23;58.04
79413;BME280;68863;49.528;11.010;2024-02-26T05:18:25;96607.28;;;7.15;57.99
79413;BME280;68863;49.528;11.010;2024-02-26T05:19:25;96613.19;;;7.17;58.14
79413;BME280;68863;49.528;11.010;2024-02-26T05:20:25;96603.06;;;7.23;58.00
79413;BME280;68863;49.528;11.010;2024-02-26T05:21:26;96612.38;;;6.95;58.79